createdAt,value
2022-08-29T00:02:36.241Z,99900.38
2022-08-29T00:05:39.833Z,99897.97
2022-08-29T00:08:41.749Z,99903.09
2022-08-29T00:11:43.455Z,99893.19
2022-08-29T00:14:48.227Z,99890.28
2022-08-29T00:17:49.805Z,99886.53
2022-08-29T00:20:51.440Z,99889.22
2022-08-29T00:23:53.101Z,99888.69
2022-08-29T00:26:54.740Z,99888.69
2022-08-29T00:29:56.350Z,99892.47
2022-08-29T00:32:58.216Z,99890.31
2022-08-29T00:35:59.804Z,99898.13
2022-08-29T00:39:01.568Z,99892.50
2022-08-29T00:42:03.763Z,99894.41
2022-08-29T00:45:06.417Z,99897.88
2022-08-29T00:48:09.474Z,99895.78
2022-08-29T00:51:13.231Z,99903.56
2022-08-29T00:54:15.022Z,99901.13
2022-08-29T00:57:17.867Z,99906.28
2022-08-29T01:00:19.497Z,99907.34
2022-08-29T01:03:21.324Z,99901.47
2022-08-29T01:06:23.967Z,99901.44
2022-08-29T01:09:25.690Z,99915.34
2022-08-29T01:12:27.581Z,99911.28
2022-08-29T01:15:30.904Z,99918.50
2022-08-29T01:18:33.423Z,99911.53
2022-08-29T01:21:39.693Z,99912.31
2022-08-29T01:24:42.726Z,99913.81
2022-08-29T01:27:44.786Z,99911.97
2022-08-29T01:31:03.101Z,99915.50
2022-08-29T01:34:04.753Z,99916.00
2022-08-29T01:37:07.030Z,99915.66
2022-08-29T01:40:09.134Z,99918.25
2022-08-29T01:43:10.823Z,99926.59
2022-08-29T01:46:14.442Z,99923.94
2022-08-29T01:49:16.649Z,99926.38
2022-08-29T01:52:18.352Z,99925.84
2022-08-29T01:55:20.245Z,99934.19
2022-08-29T01:58:22.090Z,99929.38
2022-08-29T02:01:25.504Z,99930.41
2022-08-29T02:04:27.474Z,99938.97
2022-08-29T02:07:29.550Z,99939.97
2022-08-29T02:10:31.725Z,99934.78
2022-08-29T02:13:33.482Z,99937.44
2022-08-29T02:16:35.176Z,99938.47
2022-08-29T02:19:38.065Z,99939.31
2022-08-29T02:22:40.066Z,99941.69
2022-08-29T02:25:41.657Z,99937.97
2022-08-29T02:28:43.315Z,99940.41
2022-08-29T02:31:44.967Z,99938.00
2022-08-29T02:34:48.437Z,99945.25
2022-08-29T02:37:50.378Z,99939.06
2022-08-29T02:40:52.458Z,99939.91
2022-08-29T02:43:54.543Z,99942.34
2022-08-29T02:46:56.371Z,99945.06
2022-08-29T02:49:58.625Z,99935.41
2022-08-29T02:53:00.327Z,99936.78
2022-08-29T02:56:02.238Z,99936.78
2022-08-29T02:59:04.344Z,99944.28
2022-08-29T03:02:06.100Z,99937.81
2022-08-29T03:05:07.948Z,99939.47
2022-08-29T03:08:11.553Z,99939.97
2022-08-29T03:11:14.073Z,99932.19
2022-08-29T03:14:17.618Z,99936.78
2022-08-29T03:17:19.239Z,99939.97
2022-08-29T03:20:21.555Z,99939.16
2022-08-29T03:23:23.214Z,99936.72
2022-08-29T03:26:25.509Z,99939.97
2022-08-29T03:29:27.325Z,99938.06
2022-08-29T03:32:29.686Z,99925.47
2022-08-29T03:35:31.644Z,99935.41
2022-08-29T03:38:33.359Z,99942.13
2022-08-29T03:41:35.561Z,99935.16
2022-08-29T03:44:37.586Z,99936.78
2022-08-29T03:47:39.512Z,99938.38
2022-08-29T03:50:41.114Z,99923.06
2022-08-29T03:53:42.824Z,99928.19
2022-08-29T03:56:44.431Z,99920.19
2022-08-29T03:59:48.243Z,99929.81
2022-08-29T04:02:55.878Z,99932.00
2022-08-29T04:05:57.665Z,99929.88
2022-08-29T04:08:59.332Z,99926.91
2022-08-29T04:12:01.577Z,99933.63
2022-08-29T04:15:03.999Z,99940.63
2022-08-29T04:18:07.076Z,99937.38
2022-08-29T04:21:08.977Z,99938.22
2022-08-29T04:24:10.802Z,99924.53
2022-08-29T04:27:12.401Z,99929.13
2022-08-29T04:30:15.262Z,99925.41
2022-08-29T04:33:22.550Z,99933.22
2022-08-29T04:36:24.787Z,99932.41
2022-08-29T04:39:26.412Z,99931.34
2022-08-29T04:42:28.042Z,99937.00
2022-08-29T04:45:29.726Z,99937.84
2022-08-29T04:48:31.420Z,99944.81
2022-08-29T04:51:34.600Z,99939.25
2022-08-29T04:54:36.282Z,99946.75
2022-08-29T04:57:38.284Z,99946.78
2022-08-29T05:00:40.218Z,99942.75
2022-08-29T05:03:42.053Z,99947.59
2022-08-29T05:06:43.704Z,99953.78
2022-08-29T05:09:45.315Z,99944.94
2022-08-29T05:12:46.986Z,99953.00
2022-08-29T05:15:49.199Z,99959.47
2022-08-29T05:18:50.918Z,99956.53
2022-08-29T05:21:57.915Z,99960.00
2022-08-29T05:24:59.513Z,99961.91
2022-08-29T05:28:01.127Z,99961.59
2022-08-29T05:31:02.761Z,99960.00
2022-08-29T05:34:16.218Z,99965.91
2022-08-29T05:37:26.793Z,99960.56
2022-08-29T05:40:28.638Z,99970.72
2022-08-29T05:43:30.258Z,99967.50
2022-08-29T05:46:31.913Z,99970.72
2022-08-29T05:49:35.359Z,99971.25
2022-08-29T05:52:36.918Z,99968.81
2022-08-29T05:55:42.217Z,99968.25
2022-08-29T05:58:43.882Z,99963.72
2022-08-29T06:01:47.166Z,99976.28
2022-08-29T06:04:48.839Z,99978.94
2022-08-29T06:07:50.386Z,99988.53
2022-08-29T06:10:51.982Z,99983.94
2022-08-29T06:13:53.563Z,99988.75
2022-08-29T06:16:55.370Z,99987.66
2022-08-29T06:19:57.058Z,99986.78
2022-08-29T06:22:58.680Z,99989.16
2022-08-29T06:26:00.424Z,99993.66
2022-08-29T06:29:06.405Z,99990.91
2022-08-29T06:32:07.958Z,100000.59
2022-08-29T06:35:09.622Z,99997.31
2022-08-29T06:38:14.078Z,100009.63
2022-08-29T06:41:16.318Z,100003.66
2022-08-29T06:44:18.966Z,99996.56
2022-08-29T06:47:20.593Z,99996.22
2022-08-29T06:50:22.160Z,99997.50
2022-08-29T06:53:31.813Z,99996.13
2022-08-29T06:56:34.339Z,99995.53
2022-08-29T06:59:38.594Z,100001.63
2022-08-29T07:02:40.617Z,99996.44
2022-08-29T07:05:42.570Z,100002.59
2022-08-29T07:08:55.209Z,100002.31
2022-08-29T07:11:58.198Z,100007.34
2022-08-29T07:14:59.781Z,100005.69
2022-08-29T07:18:01.382Z,100007.53
2022-08-29T07:21:09.713Z,100004.19
2022-08-29T07:24:11.338Z,100006.25
2022-08-29T07:27:13.777Z,100004.91
2022-08-29T07:30:16.601Z,100001.44
2022-08-29T07:33:18.206Z,100000.66
2022-08-29T07:36:19.782Z,100003.75
2022-08-29T07:39:23.200Z,100012.00
2022-08-29T07:42:24.769Z,100011.78
2022-08-29T07:45:26.416Z,100015.19
2022-08-29T07:48:28.053Z,100014.41
2022-08-29T07:51:29.988Z,100014.34
2022-08-29T07:54:31.648Z,100014.25
2022-08-29T07:57:33.596Z,100020.25
2022-08-29T08:00:41.310Z,100019.66
2022-08-29T08:03:43.080Z,100016.53
2022-08-29T08:06:49.814Z,100008.97
2022-08-29T08:09:51.379Z,100019.31
2022-08-29T08:12:53.028Z,100015.09
2022-08-29T08:15:55.574Z,100018.53
2022-08-29T08:18:57.418Z,100013.88
2022-08-29T08:21:59.489Z,100023.13
2022-08-29T08:25:01.246Z,100017.38
2022-08-29T08:28:03.624Z,100023.56
2022-08-29T08:31:06.799Z,100019.25
2022-08-29T08:34:08.627Z,100023.66
2022-08-29T08:37:10.290Z,100030.66
2022-08-29T08:40:21.308Z,100026.50
2022-08-29T08:43:26.995Z,100033.88
2022-08-29T08:46:31.227Z,100031.44
2022-08-29T08:49:52.235Z,100032.31
2022-08-29T08:53:04.499Z,100036.91
2022-08-29T08:56:12.897Z,100031.06
2022-08-29T08:59:16.320Z,100027.69
2022-08-29T09:02:33.851Z,100034.69
2022-08-29T09:05:57.605Z,100035.63
2022-08-29T09:09:38.503Z,100039.13
2022-08-29T09:12:58.854Z,100037.84
2022-08-29T09:16:01.034Z,100035.50
2022-08-29T09:19:05.021Z,100040.25
2022-08-29T09:22:11.457Z,100038.22
2022-08-29T09:25:15.472Z,100038.22
2022-08-29T09:28:17.261Z,100039.25
2022-08-29T09:31:21.623Z,100045.78
2022-08-29T09:34:57.084Z,100046.56
2022-08-29T09:37:56.143Z,100041.75
2022-08-29T09:40:59.196Z,100044.50
2022-08-29T09:44:00.858Z,100051.91
2022-08-29T09:47:37.053Z,100048.56
2022-08-29T09:50:38.679Z,100045.19
2022-08-29T09:53:40.466Z,100046.50
2022-08-29T09:56:50.649Z,100046.22
2022-08-29T10:00:07.840Z,100042.59
2022-08-29T10:03:11.584Z,100045.00
2022-08-29T10:06:15.446Z,100042.16
2022-08-29T10:09:27.484Z,100050.00
2022-08-29T10:12:38.367Z,100047.81
2022-08-29T10:15:51.173Z,100051.69
2022-08-29T10:18:58.806Z,100042.78
2022-08-29T10:22:02.977Z,100041.34
2022-08-29T10:25:10.867Z,100047.97
2022-08-29T10:28:19.390Z,100057.38
2022-08-29T10:31:26.250Z,100052.47
2022-08-29T10:34:31.785Z,100063.84
2022-08-29T10:37:52.425Z,100064.56
2022-08-29T10:41:03.192Z,100055.78
2022-08-29T10:44:04.978Z,100062.72
2022-08-29T10:47:39.174Z,100050.81
2022-08-29T10:50:46.057Z,100062.75
2022-08-29T10:53:51.109Z,100062.88
2022-08-29T10:56:52.810Z,100065.56
2022-08-29T11:00:20.720Z,100060.13
2022-08-29T11:03:41.318Z,100060.44
2022-08-29T11:07:03.190Z,100061.31
2022-08-29T11:10:11.008Z,100065.41
2022-08-29T11:13:18.201Z,100064.22
2022-08-29T11:16:24.701Z,100055.53
2022-08-29T11:19:28.743Z,100054.94
2022-08-29T11:22:39.754Z,100045.25
2022-08-29T11:25:42.034Z,100038.31
2022-08-29T11:28:46.712Z,100031.75
2022-08-29T11:32:00.031Z,100030.75
2022-08-29T11:35:22.666Z,100035.03
2022-08-29T11:38:24.297Z,100038.06
2022-08-29T11:41:27.744Z,100039.75
2022-08-29T11:44:30.046Z,100047.88
2022-08-29T11:47:40.841Z,100045.44
2022-08-29T11:50:43.364Z,100042.47
2022-08-29T11:53:44.926Z,100041.47
2022-08-29T11:56:46.538Z,100042.09
2022-08-29T11:59:51.323Z,100044.16
2022-08-29T12:02:52.989Z,100044.69
2022-08-29T12:05:59.642Z,100044.66
2022-08-29T12:09:04.780Z,100041.69
2022-08-29T12:12:08.612Z,100043.31
2022-08-29T12:15:29.043Z,100045.09
2022-08-29T12:18:34.643Z,100044.31
2022-08-29T12:21:38.091Z,100029.41
2022-08-29T12:24:41.825Z,100033.97
2022-08-29T12:28:01.221Z,100032.41
2022-08-29T12:31:11.999Z,100035.41
2022-08-29T12:34:17.281Z,100039.09
2022-08-29T12:37:28.685Z,100039.34
2022-08-29T12:40:36.708Z,100033.06
2022-08-29T12:43:42.786Z,100030.28
2022-08-29T12:46:45.119Z,100040.75
2022-08-29T12:49:51.570Z,100036.38
2022-08-29T12:52:59.273Z,100029.56
2022-08-29T12:56:03.957Z,100027.53
2022-08-29T12:59:05.667Z,100037.50
2022-08-29T13:02:07.585Z,100036.72
2022-08-29T13:05:19.579Z,100035.31
2022-08-29T13:08:29.453Z,100045.00
2022-08-29T13:11:31.374Z,100038.13
2022-08-29T13:14:35.108Z,100035.31
2022-08-29T13:17:38.008Z,100035.13
2022-08-29T13:20:41.276Z,100040.56
2022-08-29T13:23:45.910Z,100032.03
2022-08-29T13:27:04.247Z,100032.56
2022-08-29T13:30:08.506Z,100034.56
2022-08-29T13:33:27.125Z,100038.56
2022-08-29T13:36:38.614Z,100034.44
2022-08-29T13:39:42.054Z,100039.56
2022-08-29T13:42:44.806Z,100037.34
2022-08-29T13:45:46.413Z,100035.56
2022-08-29T13:48:48.024Z,100034.97
2022-08-29T13:51:49.841Z,100023.47
2022-08-29T13:54:51.422Z,100019.91
2022-08-29T13:57:53.819Z,100019.41
2022-08-29T14:00:56.090Z,100013.19
2022-08-29T14:04:01.285Z,100018.94
2022-08-29T14:07:12.259Z,100013.88
2022-08-29T14:10:15.031Z,100011.03
2022-08-29T14:13:16.812Z,100010.72
2022-08-29T14:16:18.511Z,100012.22
2022-08-29T14:19:26.935Z,100015.16
2022-08-29T14:22:28.622Z,100008.66
2022-08-29T14:25:30.281Z,100010.47
2022-08-29T14:28:31.918Z,100015.56
2022-08-29T14:31:35.284Z,100002.41
2022-08-29T14:34:37.979Z,100009.78
2022-08-29T14:37:40.949Z,100004.22
2022-08-29T14:40:42.985Z,100005.44
2022-08-29T14:43:44.765Z,99995.56
2022-08-29T14:46:46.452Z,99997.75
2022-08-29T14:49:48.312Z,99995.38
2022-08-29T14:52:50.131Z,99998.06
2022-08-29T14:55:51.742Z,99992.38
2022-08-29T14:58:53.865Z,99995.75
2022-08-29T15:01:55.726Z,99999.34
2022-08-29T15:04:58.957Z,100003.03
2022-08-29T15:08:06.043Z,100000.72
2022-08-29T15:11:16.913Z,99998.72
2022-08-29T15:14:19.047Z,99999.34
2022-08-29T15:17:20.725Z,99991.88
2022-08-29T15:20:40.040Z,99994.00
2022-08-29T15:23:42.385Z,99995.81
2022-08-29T15:26:44.981Z,99988.69
2022-08-29T15:29:46.592Z,99992.97
2022-08-29T15:32:49.286Z,99979.59
2022-08-29T15:35:51.206Z,99986.19
2022-08-29T15:38:52.849Z,99984.47
2022-08-29T15:41:55.328Z,99985.16
2022-08-29T15:44:58.581Z,99984.03
2022-08-29T15:48:00.474Z,99982.41
2022-08-29T15:51:03.217Z,99986.13
2022-08-29T15:54:05.662Z,99986.81
2022-08-29T15:57:07.971Z,99984.19
2022-08-29T16:00:11.794Z,99987.28
2022-08-29T16:03:17.993Z,99980.38
2022-08-29T16:06:19.649Z,99991.31
2022-08-29T16:09:21.409Z,99991.94
2022-08-29T16:12:23.077Z,99998.94
2022-08-29T16:15:24.799Z,99998.00
2022-08-29T16:18:26.555Z,99995.78
2022-08-29T16:21:28.161Z,100008.25
2022-08-29T16:24:31.064Z,100008.38
2022-08-29T16:27:33.157Z,100006.78
2022-08-29T16:30:34.869Z,99995.78
2022-08-29T16:33:40.446Z,99993.81
2022-08-29T16:36:43.024Z,99991.16
2022-08-29T16:39:44.965Z,99995.34
2022-08-29T16:42:55.655Z,99998.78
2022-08-29T16:45:57.537Z,99999.63
2022-08-29T16:49:24.857Z,100012.03
2022-08-29T16:52:26.923Z,100006.50
2022-08-29T16:55:29.781Z,100004.38
2022-08-29T16:58:55.265Z,100001.06
2022-08-29T17:01:56.956Z,99995.06
2022-08-29T17:04:58.969Z,99995.47
2022-08-29T17:08:01.274Z,99994.88
2022-08-29T17:11:03.177Z,99988.13
2022-08-29T17:14:05.250Z,99990.91
2022-08-29T17:17:07.207Z,99989.72
2022-08-29T17:20:10.862Z,99998.03
2022-08-29T17:23:13.123Z,99999.63
2022-08-29T17:26:16.584Z,100006.97
2022-08-29T17:29:18.187Z,100013.53
2022-08-29T17:32:19.847Z,100017.25
2022-08-29T17:35:22.072Z,100010.63
2022-08-29T17:38:23.814Z,100017.38
2022-08-29T17:41:28.143Z,100018.63
2022-08-29T17:44:31.817Z,100004.31
2022-08-29T17:47:33.485Z,100003.66
2022-08-29T17:50:35.081Z,100004.53
2022-08-29T17:53:36.669Z,100004.09
2022-08-29T17:56:44.324Z,99999.22
2022-08-29T17:59:46.305Z,100000.59
2022-08-29T18:02:47.967Z,99997.09
2022-08-29T18:05:49.659Z,100002.38
2022-08-29T18:08:51.359Z,100005.22
2022-08-29T18:11:53.373Z,99995.88
2022-08-29T18:14:55.397Z,99997.41
2022-08-29T18:17:57.001Z,99998.66
2022-08-29T18:20:58.607Z,99996.28
2022-08-29T18:24:00.294Z,99999.88
2022-08-29T18:27:02.020Z,99990.22
2022-08-29T18:30:04.275Z,99994.00
2022-08-29T18:33:07.108Z,99998.13
2022-08-29T18:36:09.094Z,99994.50
2022-08-29T18:39:10.758Z,99995.06
2022-08-29T18:42:30.598Z,99996.69
2022-08-29T18:45:34.094Z,99997.81
2022-08-29T18:48:35.985Z,99994.66
2022-08-29T18:51:37.558Z,99997.16
2022-08-29T18:54:39.279Z,100000.66
2022-08-29T18:57:40.862Z,100005.25
2022-08-29T19:00:42.861Z,100014.41
2022-08-29T19:03:44.525Z,100015.25
2022-08-29T19:06:47.177Z,100016.06
2022-08-29T19:10:04.787Z,100015.03
2022-08-29T19:13:09.918Z,100013.59
2022-08-29T19:16:11.754Z,100013.59
2022-08-29T19:19:13.737Z,100019.03
2022-08-29T19:22:15.997Z,100023.44
2022-08-29T19:25:18.409Z,100019.44
2022-08-29T19:28:20.770Z,100030.47
2022-08-29T19:31:22.796Z,100023.22
2022-08-29T19:34:24.434Z,100024.81
2022-08-29T19:37:26.806Z,100029.03
2022-08-29T19:40:29.380Z,100028.34
2022-08-29T19:43:33.518Z,100032.91
2022-08-29T19:46:36.094Z,100036.19
2022-08-29T19:49:40.993Z,100036.75
2022-08-29T19:52:45.326Z,100031.66
2022-08-29T19:55:47.002Z,100034.91
2022-08-29T19:58:49.427Z,100033.25
2022-08-29T20:01:51.348Z,100031.44
2022-08-29T20:04:53.254Z,100029.78
2022-08-29T20:07:54.926Z,100031.94
2022-08-29T20:10:56.513Z,100031.75
2022-08-29T20:13:58.340Z,100031.78
2022-08-29T20:17:00.617Z,100032.59
2022-08-29T20:20:04.250Z,100032.09
2022-08-29T20:23:06.742Z,100028.31
2022-08-29T20:26:08.367Z,100033.63
2022-08-29T20:29:10.576Z,100043.63
2022-08-29T20:32:12.286Z,100038.88
2022-08-29T20:35:13.915Z,100036.44
2022-08-29T20:38:15.666Z,100046.13
2022-08-29T20:41:21.201Z,100043.69
2022-08-29T20:44:23.902Z,100044.03
2022-08-29T20:47:25.818Z,100039.00
2022-08-29T20:53:34.880Z,100028.63
2022-08-29T20:56:36.497Z,100041.84
2022-08-29T20:59:39.654Z,100040.03
2022-08-29T21:02:59.996Z,100038.94
2022-08-29T21:06:01.574Z,100038.69
2022-08-29T21:09:03.534Z,100034.38
2022-08-29T21:12:05.154Z,100039.19
2022-08-29T21:15:07.753Z,100044.31
2022-08-29T21:18:10.121Z,100044.34
2022-08-29T21:21:14.650Z,100047.53
2022-08-29T21:24:16.201Z,100051.78
2022-08-29T21:27:18.126Z,100052.03
2022-08-29T21:30:19.890Z,100038.59
2022-08-29T21:33:22.047Z,100055.22
2022-08-29T21:36:25.777Z,100053.06
2022-08-29T21:39:28.500Z,100048.56
2022-08-29T21:42:30.699Z,100047.75
2022-08-29T21:45:33.464Z,100054.75
2022-08-29T21:48:35.057Z,100052.13
2022-08-29T21:51:36.787Z,100052.41
2022-08-29T21:54:38.368Z,100058.00
2022-08-29T21:57:52.027Z,100058.00
2022-08-29T22:00:53.638Z,100055.25
2022-08-29T22:03:56.113Z,100059.81
2022-08-29T22:06:58.250Z,100052.66
2022-08-29T22:10:00.973Z,100062.41
2022-08-29T22:13:03.278Z,100061.41
2022-08-29T22:16:23.537Z,100060.88
2022-08-29T22:19:25.133Z,100058.22
2022-08-29T22:22:26.713Z,100056.91
2022-08-29T22:25:28.315Z,100049.16
2022-08-29T22:28:29.906Z,100046.19
2022-08-29T22:31:32.143Z,100041.91
2022-08-29T22:34:33.764Z,100048.34
2022-08-29T22:37:36.835Z,100045.09
2022-08-29T22:40:40.419Z,100045.34
2022-08-29T22:43:42.560Z,100043.78
2022-08-29T22:46:44.799Z,100039.47
2022-08-29T22:49:46.543Z,100038.91
2022-08-29T22:52:48.450Z,100033.81
2022-08-29T22:55:50.049Z,100036.22
2022-08-29T22:58:51.606Z,100040.75
2022-08-29T23:01:53.800Z,100031.13
2022-08-29T23:04:55.749Z,100043.19
2022-08-29T23:07:57.352Z,100032.50
2022-08-29T23:10:58.965Z,100038.66
2022-08-29T23:14:00.580Z,100040.31
2022-08-29T23:17:04.790Z,100037.91
2022-08-29T23:20:07.085Z,100033.09
2022-08-29T23:23:10.634Z,100034.44
2022-08-29T23:26:12.273Z,100034.75
2022-08-29T23:29:13.926Z,100037.16
2022-08-29T23:32:15.505Z,100048.41
2022-08-29T23:35:17.104Z,100044.66
2022-08-29T23:38:19.036Z,100036.09
2022-08-29T23:41:20.634Z,100038.50
2022-08-29T23:44:22.213Z,100040.13
2022-08-29T23:47:23.788Z,100029.94
2022-08-29T23:50:25.386Z,100033.69
2022-08-29T23:53:26.971Z,100031.56
2022-08-29T23:56:28.582Z,100029.94
2022-08-29T23:59:48.594Z,100034.22
